sensor_id;sensor_type;location;lat;lon;timestamp;P1;durP1;ratioP1;P2;durP2;ratioP2
19907;SDS011;10116;53.112;7.356;2023-03-01T00:01:04;3.20;;;3.00;;
19907;SDS011;10116;53.112;7.356;2023-03-01T00:03:32;2.60;;;2.50;;
19907;SDS011;10116;53.112;7.356;2023-03-01T00:05:58;2.70;;;2.50;;
19907;SDS011;10116;53.112;7.356;2023-03-01T00:08:24;2.93;;;2.77;;
19907;SDS011;10116;53.112;7.356;2023-03-01T00:13:53;2.50;;;2.40;;
19907;SDS011;10116;53.112;7.356;2023-03-01T00:16:22;2.80;;;2.60;;
19907;SDS011;10116;53.112;7.356;2023-03-01T00:18:50;2.80;;;2.70;;
19907;SDS011;10116;53.112;7.356;2023-03-01T00:21:16;3.00;;;2.80;;
19907;SDS011;10116;53.112;7.356;2023-03-01T00:23:42;2.57;;;2.47;;
19907;SDS011;10116;53.112;7.356;2023-03-01T00:26:09;3.10;;;3.00;;
19907;SDS011;10116;53.112;7.356;2023-03-01T00:28:36;2.67;;;2.57;;
19907;SDS011;10116;53.112;7.356;2023-03-01T00:31:12;2.63;;;2.53;;
19907;SDS011;10116;53.112;7.356;2023-03-01T00:33:39;2.87;;;2.70;;
19907;SDS011;10116;53.112;7.356;2023-03-01T00:36:05;2.50;;;2.40;;
19907;SDS011;10116;53.112;7.356;2023-03-01T00:38:35;2.47;;;2.27;;
19907;SDS011;10116;53.112;7.356;2023-03-01T00:41:06;2.30;;;2.20;;
19907;SDS011;10116;53.112;7.356;2023-03-01T00:43:33;2.50;;;2.40;;
19907;SDS011;10116;53.112;7.356;2023-03-01T00:46:03;2.17;;;2.10;;
19907;SDS011;10116;53.112;7.356;2023-03-01T00:48:30;2.57;;;2.47;;
19907;SDS011;10116;53.112;7.356;2023-03-01T00:50:56;3.20;;;3.00;;
19907;SDS011;10116;53.112;7.356;2023-03-01T00:53:28;2.23;;;2.13;;
19907;SDS011;10116;53.112;7.356;2023-03-01T00:55:54;2.70;;;2.60;;
19907;SDS011;10116;53.112;7.356;2023-03-01T00:58:22;2.70;;;2.60;;
19907;SDS011;10116;53.112;7.356;2023-03-01T01:00:48;2.60;;;2.50;;
19907;SDS011;10116;53.112;7.356;2023-03-01T01:03:14;2.70;;;2.60;;
19907;SDS011;10116;53.112;7.356;2023-03-01T01:05:39;2.30;;;2.20;;
19907;SDS011;10116;53.112;7.356;2023-03-01T01:08:05;2.53;;;2.43;;
19907;SDS011;10116;53.112;7.356;2023-03-01T01:10:32;2.20;;;2.13;;
19907;SDS011;10116;53.112;7.356;2023-03-01T01:13:01;2.70;;;2.60;;
19907;SDS011;10116;53.112;7.356;2023-03-01T01:15:27;2.17;;;2.07;;
19907;SDS011;10116;53.112;7.356;2023-03-01T01:17:53;2.20;;;2.10;;
19907;SDS011;10116;53.112;7.356;2023-03-01T01:20:19;2.13;;;2.13;;
19907;SDS011;10116;53.112;7.356;2023-03-01T01:22:45;2.40;;;2.30;;
19907;SDS011;10116;53.112;7.356;2023-03-01T01:25:10;2.00;;;1.90;;
19907;SDS011;10116;53.112;7.356;2023-03-01T01:27:36;2.20;;;2.10;;
19907;SDS011;10116;53.112;7.356;2023-03-01T01:30:02;1.70;;;1.70;;
19907;SDS011;10116;53.112;7.356;2023-03-01T01:32:29;2.80;;;2.70;;
19907;SDS011;10116;53.112;7.356;2023-03-01T01:34:55;2.60;;;2.50;;
19907;SDS011;10116;53.112;7.356;2023-03-01T01:37:21;2.97;;;2.87;;
19907;SDS011;10116;53.112;7.356;2023-03-01T01:39:46;2.30;;;2.20;;
19907;SDS011;10116;53.112;7.356;2023-03-01T01:42:16;2.20;;;2.10;;
19907;SDS011;10116;53.112;7.356;2023-03-01T01:44:44;2.50;;;2.40;;
19907;SDS011;10116;53.112;7.356;2023-03-01T01:47:16;2.17;;;2.07;;
19907;SDS011;10116;53.112;7.356;2023-03-01T01:49:45;2.63;;;2.43;;
19907;SDS011;10116;53.112;7.356;2023-03-01T01:52:16;2.27;;;2.17;;
19907;SDS011;10116;53.112;7.356;2023-03-01T01:57:37;2.73;;;2.63;;
19907;SDS011;10116;53.112;7.356;2023-03-01T02:00:16;2.33;;;2.23;;
19907;SDS011;10116;53.112;7.356;2023-03-01T02:02:45;2.90;;;2.80;;
19907;SDS011;10116;53.112;7.356;2023-03-01T02:08:01;2.93;;;2.83;;
19907;SDS011;10116;53.112;7.356;2023-03-01T02:10:27;2.90;;;2.70;;
19907;SDS011;10116;53.112;7.356;2023-03-01T02:12:54;2.83;;;2.63;;
19907;SDS011;10116;53.112;7.356;2023-03-01T02:15:21;2.53;;;2.43;;
19907;SDS011;10116;53.112;7.356;2023-03-01T02:17:47;2.63;;;2.53;;
19907;SDS011;10116;53.112;7.356;2023-03-01T02:22:47;2.50;;;2.40;;
19907;SDS011;10116;53.112;7.356;2023-03-01T02:28:08;2.83;;;2.63;;
19907;SDS011;10116;53.112;7.356;2023-03-01T02:30:36;2.80;;;2.63;;
19907;SDS011;10116;53.112;7.356;2023-03-01T02:33:02;2.63;;;2.53;;
19907;SDS011;10116;53.112;7.356;2023-03-01T02:35:30;2.87;;;2.70;;
19907;SDS011;10116;53.112;7.356;2023-03-01T02:37:59;2.80;;;2.70;;
19907;SDS011;10116;53.112;7.356;2023-03-01T02:40:27;2.90;;;2.80;;
19907;SDS011;10116;53.112;7.356;2023-03-01T02:42:56;3.37;;;3.17;;
19907;SDS011;10116;53.112;7.356;2023-03-01T02:45:24;2.83;;;2.70;;
19907;SDS011;10116;53.112;7.356;2023-03-01T02:47:53;3.00;;;2.80;;
19907;SDS011;10116;53.112;7.356;2023-03-01T02:50:26;2.70;;;2.60;;
19907;SDS011;10116;53.112;7.356;2023-03-01T02:55:46;3.07;;;2.90;;
19907;SDS011;10116;53.112;7.356;2023-03-01T02:58:12;3.13;;;2.93;;
19907;SDS011;10116;53.112;7.356;2023-03-01T03:00:41;2.60;;;2.50;;
19907;SDS011;10116;53.112;7.356;2023-03-01T03:03:13;2.33;;;2.23;;
19907;SDS011;10116;53.112;7.356;2023-03-01T03:05:40;2.63;;;2.30;;
19907;SDS011;10116;53.112;7.356;2023-03-01T03:08:06;2.50;;;2.30;;
19907;SDS011;10116;53.112;7.356;2023-03-01T03:10:34;2.20;;;2.10;;
19907;SDS011;10116;53.112;7.356;2023-03-01T03:13:03;2.53;;;2.40;;
19907;SDS011;10116;53.112;7.356;2023-03-01T03:15:30;2.30;;;2.20;;
19907;SDS011;10116;53.112;7.356;2023-03-01T03:17:56;2.37;;;2.27;;
19907;SDS011;10116;53.112;7.356;2023-03-01T03:20:24;2.43;;;2.33;;
19907;SDS011;10116;53.112;7.356;2023-03-01T03:22:52;2.53;;;2.43;;
19907;SDS011;10116;53.112;7.356;2023-03-01T03:25:19;2.17;;;2.07;;
19907;SDS011;10116;53.112;7.356;2023-03-01T03:27:46;2.30;;;2.20;;
19907;SDS011;10116;53.112;7.356;2023-03-01T03:30:17;2.30;;;2.20;;
19907;SDS011;10116;53.112;7.356;2023-03-01T03:32:44;1.83;;;1.83;;
19907;SDS011;10116;53.112;7.356;2023-03-01T03:35:21;2.50;;;2.33;;
19907;SDS011;10116;53.112;7.356;2023-03-01T03:37:49;2.73;;;2.63;;
19907;SDS011;10116;53.112;7.356;2023-03-01T03:40:32;2.33;;;2.20;;
19907;SDS011;10116;53.112;7.356;2023-03-01T03:43:00;2.73;;;2.63;;
19907;SDS011;10116;53.112;7.356;2023-03-01T03:45:26;2.83;;;2.73;;
19907;SDS011;10116;53.112;7.356;2023-03-01T03:47:51;2.50;;;2.40;;
19907;SDS011;10116;53.112;7.356;2023-03-01T03:50:17;2.90;;;2.70;;
19907;SDS011;10116;53.112;7.356;2023-03-01T03:52:43;2.67;;;2.57;;
19907;SDS011;10116;53.112;7.356;2023-03-01T03:55:10;2.70;;;2.60;;
19907;SDS011;10116;53.112;7.356;2023-03-01T03:57:40;2.60;;;2.50;;
19907;SDS011;10116;53.112;7.356;2023-03-01T04:00:08;2.87;;;2.67;;
19907;SDS011;10116;53.112;7.356;2023-03-01T04:02:44;2.60;;;2.50;;
19907;SDS011;10116;53.112;7.356;2023-03-01T04:05:11;3.20;;;3.10;;
19907;SDS011;10116;53.112;7.356;2023-03-01T04:07:39;2.53;;;2.43;;
19907;SDS011;10116;53.112;7.356;2023-03-01T04:10:06;2.67;;;2.57;;
19907;SDS011;10116;53.112;7.356;2023-03-01T04:12:35;3.13;;;2.93;;
19907;SDS011;10116;53.112;7.356;2023-03-01T04:15:04;3.60;;;3.30;;
19907;SDS011;10116;53.112;7.356;2023-03-01T04:17:37;3.10;;;3.00;;
19907;SDS011;10116;53.112;7.356;2023-03-01T04:20:07;3.23;;;3.13;;
19907;SDS011;10116;53.112;7.356;2023-03-01T04:22:50;3.10;;;3.00;;
19907;SDS011;10116;53.112;7.356;2023-03-01T04:25:35;3.13;;;2.77;;
19907;SDS011;10116;53.112;7.356;2023-03-01T04:28:05;3.57;;;3.37;;
19907;SDS011;10116;53.112;7.356;2023-03-01T04:30:30;3.33;;;3.23;;
19907;SDS011;10116;53.112;7.356;2023-03-01T04:33:00;3.33;;;3.13;;
19907;SDS011;10116;53.112;7.356;2023-03-01T04:35:27;2.77;;;2.67;;
19907;SDS011;10116;53.112;7.356;2023-03-01T04:37:53;2.83;;;2.73;;
19907;SDS011;10116;53.112;7.356;2023-03-01T04:40:19;2.47;;;2.37;;
19907;SDS011;10116;53.112;7.356;2023-03-01T04:42:46;3.30;;;3.10;;
19907;SDS011;10116;53.112;7.356;2023-03-01T04:45:12;2.60;;;2.50;;
19907;SDS011;10116;53.112;7.356;2023-03-01T04:47:41;2.20;;;2.10;;
19907;SDS011;10116;53.112;7.356;2023-03-01T04:50:09;2.43;;;2.33;;
19907;SDS011;10116;53.112;7.356;2023-03-01T04:52:36;2.10;;;2.10;;
19907;SDS011;10116;53.112;7.356;2023-03-01T04:55:03;2.60;;;2.50;;
19907;SDS011;10116;53.112;7.356;2023-03-01T04:57:29;2.53;;;2.43;;
19907;SDS011;10116;53.112;7.356;2023-03-01T04:59:55;2.80;;;2.70;;
19907;SDS011;10116;53.112;7.356;2023-03-01T05:02:21;2.60;;;2.50;;
19907;SDS011;10116;53.112;7.356;2023-03-01T05:04:46;2.50;;;2.40;;
19907;SDS011;10116;53.112;7.356;2023-03-01T05:07:12;2.90;;;2.80;;
19907;SDS011;10116;53.112;7.356;2023-03-01T05:09:44;2.77;;;2.67;;
19907;SDS011;10116;53.112;7.356;2023-03-01T05:12:13;2.70;;;2.60;;
19907;SDS011;10116;53.112;7.356;2023-03-01T05:14:40;2.90;;;2.70;;
19907;SDS011;10116;53.112;7.356;2023-03-01T05:17:06;2.90;;;2.73;;
19907;SDS011;10116;53.112;7.356;2023-03-01T05:19:32;2.73;;;2.57;;
19907;SDS011;10116;53.112;7.356;2023-03-01T05:21:58;2.93;;;2.73;;
19907;SDS011;10116;53.112;7.356;2023-03-01T05:24:29;3.10;;;3.00;;
19907;SDS011;10116;53.112;7.356;2023-03-01T05:26:55;3.23;;;3.03;;
19907;SDS011;10116;53.112;7.356;2023-03-01T05:29:21;3.77;;;3.57;;
19907;SDS011;10116;53.112;7.356;2023-03-01T05:31:52;3.03;;;2.93;;
19907;SDS011;10116;53.112;7.356;2023-03-01T05:34:22;3.07;;;2.97;;
19907;SDS011;10116;53.112;7.356;2023-03-01T05:36:52;3.30;;;3.10;;
19907;SDS011;10116;53.112;7.356;2023-03-01T05:39:22;3.53;;;3.33;;
19907;SDS011;10116;53.112;7.356;2023-03-01T05:41:51;4.10;;;3.80;;
19907;SDS011;10116;53.112;7.356;2023-03-01T05:44:18;3.80;;;3.60;;
19907;SDS011;10116;53.112;7.356;2023-03-01T05:46:44;4.00;;;3.73;;
19907;SDS011;10116;53.112;7.356;2023-03-01T05:49:10;3.20;;;3.10;;
19907;SDS011;10116;53.112;7.356;2023-03-01T05:51:38;2.70;;;2.60;;
19907;SDS011;10116;53.112;7.356;2023-03-01T05:54:04;4.00;;;3.80;;
19907;SDS011;10116;53.112;7.356;2023-03-01T05:56:32;3.53;;;3.33;;
19907;SDS011;10116;53.112;7.356;2023-03-01T05:59:01;3.40;;;3.20;;
19907;SDS011;10116;53.112;7.356;2023-03-01T06:01:28;2.87;;;2.77;;
19907;SDS011;10116;53.112;7.356;2023-03-01T06:03:54;3.40;;;3.20;;
19907;SDS011;10116;53.112;7.356;2023-03-01T06:06:20;3.20;;;3.10;;
19907;SDS011;10116;53.112;7.356;2023-03-01T06:08:46;3.97;;;3.77;;
19907;SDS011;10116;53.112;7.356;2023-03-01T06:11:12;3.23;;;3.10;;
19907;SDS011;10116;53.112;7.356;2023-03-01T06:13:37;3.43;;;3.23;;
19907;SDS011;10116;53.112;7.356;2023-03-01T06:16:06;3.10;;;3.00;;
19907;SDS011;10116;53.112;7.356;2023-03-01T06:18:32;3.07;;;2.97;;
19907;SDS011;10116;53.112;7.356;2023-03-01T06:20:58;3.43;;;3.23;;
19907;SDS011;10116;53.112;7.356;2023-03-01T06:23:23;3.50;;;3.30;;
19907;SDS011;10116;53.112;7.356;2023-03-01T06:25:49;3.30;;;3.10;;
19907;SDS011;10116;53.112;7.356;2023-03-01T06:28:15;3.60;;;3.40;;
19907;SDS011;10116;53.112;7.356;2023-03-01T06:30:41;3.50;;;3.30;;
19907;SDS011;10116;53.112;7.356;2023-03-01T06:33:06;3.50;;;3.30;;
19907;SDS011;10116;53.112;7.356;2023-03-01T06:35:32;2.90;;;2.80;;
19907;SDS011;10116;53.112;7.356;2023-03-01T06:37:59;2.97;;;2.87;;
19907;SDS011;10116;53.112;7.356;2023-03-01T06:40:25;2.87;;;2.77;;
19907;SDS011;10116;53.112;7.356;2023-03-01T06:42:51;2.53;;;2.43;;
19907;SDS011;10116;53.112;7.356;2023-03-01T06:45:18;3.30;;;3.10;;
19907;SDS011;10116;53.112;7.356;2023-03-01T06:47:44;3.43;;;3.23;;
19907;SDS011;10116;53.112;7.356;2023-03-01T06:50:10;3.30;;;2.93;;
19907;SDS011;10116;53.112;7.356;2023-03-01T06:52:36;3.33;;;3.13;;
19907;SDS011;10116;53.112;7.356;2023-03-01T06:55:02;3.73;;;3.43;;
19907;SDS011;10116;53.112;7.356;2023-03-01T06:57:28;3.50;;;3.20;;
19907;SDS011;10116;53.112;7.356;2023-03-01T06:59:54;3.87;;;2.63;;
19907;SDS011;10116;53.112;7.356;2023-03-01T07:02:19;3.13;;;2.90;;
19907;SDS011;10116;53.112;7.356;2023-03-01T07:04:45;5.63;;;3.60;;
19907;SDS011;10116;53.112;7.356;2023-03-01T07:07:10;5.33;;;3.80;;
19907;SDS011;10116;53.112;7.356;2023-03-01T07:09:36;3.50;;;3.20;;
19907;SDS011;10116;53.112;7.356;2023-03-01T07:12:02;3.73;;;3.53;;
19907;SDS011;10116;53.112;7.356;2023-03-01T07:14:28;3.73;;;3.53;;
19907;SDS011;10116;53.112;7.356;2023-03-01T07:16:53;5.13;;;4.20;;
19907;SDS011;10116;53.112;7.356;2023-03-01T07:19:20;4.47;;;4.07;;
19907;SDS011;10116;53.112;7.356;2023-03-01T07:21:46;5.03;;;4.53;;
19907;SDS011;10116;53.112;7.356;2023-03-01T07:24:12;5.50;;;4.10;;
19907;SDS011;10116;53.112;7.356;2023-03-01T07:26:38;4.20;;;3.80;;
19907;SDS011;10116;53.112;7.356;2023-03-01T07:29:04;4.23;;;3.93;;
19907;SDS011;10116;53.112;7.356;2023-03-01T07:31:32;4.50;;;4.10;;
19907;SDS011;10116;53.112;7.356;2023-03-01T07:33:57;4.30;;;3.90;;
19907;SDS011;10116;53.112;7.356;2023-03-01T07:36:23;5.97;;;4.00;;
19907;SDS011;10116;53.112;7.356;2023-03-01T07:38:49;4.40;;;4.00;;
19907;SDS011;10116;53.112;7.356;2023-03-01T07:41:15;4.30;;;4.00;;
19907;SDS011;10116;53.112;7.356;2023-03-01T07:43:41;4.17;;;3.77;;
19907;SDS011;10116;53.112;7.356;2023-03-01T07:46:07;4.47;;;4.23;;
19907;SDS011;10116;53.112;7.356;2023-03-01T07:48:33;4.17;;;3.87;;
19907;SDS011;10116;53.112;7.356;2023-03-01T07:51:00;4.63;;;4.33;;
19907;SDS011;10116;53.112;7.356;2023-03-01T07:53:26;4.33;;;4.03;;
19907;SDS011;10116;53.112;7.356;2023-03-01T07:56:02;5.93;;;5.40;;
19907;SDS011;10116;53.112;7.356;2023-03-01T07:58:31;6.03;;;5.50;;
19907;SDS011;10116;53.112;7.356;2023-03-01T08:01:00;8.80;;;5.50;;
19907;SDS011;10116;53.112;7.356;2023-03-01T08:03:30;6.80;;;6.20;;
19907;SDS011;10116;53.112;7.356;2023-03-01T08:05:59;7.63;;;6.80;;
19907;SDS011;10116;53.112;7.356;2023-03-01T08:08:25;9.50;;;8.57;;
19907;SDS011;10116;53.112;7.356;2023-03-01T08:10:51;11.23;;;10.13;;
19907;SDS011;10116;53.112;7.356;2023-03-01T08:13:17;12.10;;;10.90;;
19907;SDS011;10116;53.112;7.356;2023-03-01T08:15:47;20.93;;;11.30;;
19907;SDS011;10116;53.112;7.356;2023-03-01T08:18:14;19.13;;;11.73;;
19907;SDS011;10116;53.112;7.356;2023-03-01T08:20:42;14.00;;;11.67;;
19907;SDS011;10116;53.112;7.356;2023-03-01T08:23:07;14.70;;;11.70;;
19907;SDS011;10116;53.112;7.356;2023-03-01T08:25:34;22.40;;;12.10;;
19907;SDS011;10116;53.112;7.356;2023-03-01T08:28:00;14.03;;;12.00;;
19907;SDS011;10116;53.112;7.356;2023-03-01T08:30:26;12.83;;;11.63;;
19907;SDS011;10116;53.112;7.356;2023-03-01T08:32:51;17.67;;;12.03;;
19907;SDS011;10116;53.112;7.356;2023-03-01T08:35:18;13.00;;;11.00;;
19907;SDS011;10116;53.112;7.356;2023-03-01T08:37:44;20.30;;;18.07;;
19907;SDS011;10116;53.112;7.356;2023-03-01T08:40:10;17.90;;;14.33;;
19907;SDS011;10116;53.112;7.356;2023-03-01T08:42:38;10.97;;;9.97;;
19907;SDS011;10116;53.112;7.356;2023-03-01T08:45:05;10.30;;;9.27;;
19907;SDS011;10116;53.112;7.356;2023-03-01T08:47:32;11.37;;;9.33;;
19907;SDS011;10116;53.112;7.356;2023-03-01T08:49:58;31.07;;;9.83;;
19907;SDS011;10116;53.112;7.356;2023-03-01T08:52:25;10.10;;;8.93;;
19907;SDS011;10116;53.112;7.356;2023-03-01T08:54:50;11.30;;;8.73;;
19907;SDS011;10116;53.112;7.356;2023-03-01T08:57:16;14.70;;;10.93;;
19907;SDS011;10116;53.112;7.356;2023-03-01T08:59:42;15.80;;;11.93;;
19907;SDS011;10116;53.112;7.356;2023-03-01T09:02:17;15.17;;;11.63;;
19907;SDS011;10116;53.112;7.356;2023-03-01T09:04:43;15.87;;;11.77;;
19907;SDS011;10116;53.112;7.356;2023-03-01T09:07:09;17.80;;;12.33;;
19907;SDS011;10116;53.112;7.356;2023-03-01T09:09:36;16.63;;;11.70;;
19907;SDS011;10116;53.112;7.356;2023-03-01T09:12:02;18.43;;;13.10;;
19907;SDS011;10116;53.112;7.356;2023-03-01T09:14:28;19.83;;;11.27;;
19907;SDS011;10116;53.112;7.356;2023-03-01T09:16:54;16.17;;;11.13;;
19907;SDS011;10116;53.112;7.356;2023-03-01T09:19:20;17.20;;;12.40;;
19907;SDS011;10116;53.112;7.356;2023-03-01T09:21:45;21.37;;;12.80;;
19907;SDS011;10116;53.112;7.356;2023-03-01T09:24:17;19.90;;;12.90;;
19907;SDS011;10116;53.112;7.356;2023-03-01T09:26:45;18.30;;;12.70;;
19907;SDS011;10116;53.112;7.356;2023-03-01T09:29:11;17.50;;;11.80;;
19907;SDS011;10116;53.112;7.356;2023-03-01T09:31:37;17.30;;;11.30;;
19907;SDS011;10116;53.112;7.356;2023-03-01T09:34:03;13.97;;;10.93;;
19907;SDS011;10116;53.112;7.356;2023-03-01T09:36:30;14.07;;;10.67;;
19907;SDS011;10116;53.112;7.356;2023-03-01T09:38:56;12.47;;;10.57;;
19907;SDS011;10116;53.112;7.356;2023-03-01T09:47:01;11.40;;;9.90;;
19907;SDS011;10116;53.112;7.356;2023-03-01T09:49:29;11.07;;;9.63;;
19907;SDS011;10116;53.112;7.356;2023-03-01T09:54:59;10.90;;;9.10;;
19907;SDS011;10116;53.112;7.356;2023-03-01T09:57:30;10.23;;;9.10;;
19907;SDS011;10116;53.112;7.356;2023-03-01T10:08:24;38.87;;;18.70;;
19907;SDS011;10116;53.112;7.356;2023-03-01T10:11:41;21.67;;;17.57;;
19907;SDS011;10116;53.112;7.356;2023-03-01T10:14:05;15.50;;;13.87;;
19907;SDS011;10116;53.112;7.356;2023-03-01T10:16:52;16.13;;;12.77;;
19907;SDS011;10116;53.112;7.356;2023-03-01T10:22:13;13.17;;;11.77;;
19907;SDS011;10116;53.112;7.356;2023-03-01T10:24:46;11.23;;;10.13;;
19907;SDS011;10116;53.112;7.356;2023-03-01T10:32:46;10.40;;;9.40;;
19907;SDS011;10116;53.112;7.356;2023-03-01T10:35:20;9.23;;;8.37;;
19907;SDS011;10116;53.112;7.356;2023-03-01T10:43:24;6.77;;;6.20;;
19907;SDS011;10116;53.112;7.356;2023-03-01T10:45:55;7.50;;;6.87;;
19907;SDS011;10116;53.112;7.356;2023-03-01T10:48:24;6.80;;;6.27;;
19907;SDS011;10116;53.112;7.356;2023-03-01T10:55:57;6.50;;;5.90;;
19907;SDS011;10116;53.112;7.356;2023-03-01T10:58:25;5.40;;;5.00;;
19907;SDS011;10116;53.112;7.356;2023-03-01T11:00:55;5.10;;;4.70;;
19907;SDS011;10116;53.112;7.356;2023-03-01T11:03:27;6.07;;;5.50;;
19907;SDS011;10116;53.112;7.356;2023-03-01T11:06:38;6.07;;;5.50;;
19907;SDS011;10116;53.112;7.356;2023-03-01T11:08:47;6.27;;;5.77;;
19907;SDS011;10116;53.112;7.356;2023-03-01T11:11:26;8.87;;;5.50;;
19907;SDS011;10116;53.112;7.356;2023-03-01T11:14:39;6.33;;;5.83;;
19907;SDS011;10116;53.112;7.356;2023-03-01T11:17:03;5.97;;;5.47;;
19907;SDS011;10116;53.112;7.356;2023-03-01T11:19:31;6.50;;;5.80;;
19907;SDS011;10116;53.112;7.356;2023-03-01T11:22:05;5.27;;;4.87;;
19907;SDS011;10116;53.112;7.356;2023-03-01T11:24:52;5.80;;;5.40;;
19907;SDS011;10116;53.112;7.356;2023-03-01T11:33:19;5.20;;;4.80;;
19907;SDS011;10116;53.112;7.356;2023-03-01T11:36:03;5.43;;;4.57;;
19907;SDS011;10116;53.112;7.356;2023-03-01T11:38:41;4.10;;;3.80;;
19907;SDS011;10116;53.112;7.356;2023-03-01T11:41:10;4.70;;;4.33;;
19907;SDS011;10116;53.112;7.356;2023-03-01T11:49:19;3.73;;;3.50;;
19907;SDS011;10116;53.112;7.356;2023-03-01T11:54:48;4.20;;;3.67;;
19907;SDS011;10116;53.112;7.356;2023-03-01T12:25:34;3.27;;;3.07;;
19907;SDS011;10116;53.112;7.356;2023-03-01T12:28:28;5.63;;;3.63;;
19907;SDS011;10116;53.112;7.356;2023-03-01T12:45:32;3.30;;;3.07;;
19907;SDS011;10116;53.112;7.356;2023-03-01T12:50:50;6.20;;;3.57;;
19907;SDS011;10116;53.112;7.356;2023-03-01T12:53:39;4.57;;;4.17;;
19907;SDS011;10116;53.112;7.356;2023-03-01T12:56:22;4.80;;;4.50;;
19907;SDS011;10116;53.112;7.356;2023-03-01T13:06:47;5.10;;;4.60;;
19907;SDS011;10116;53.112;7.356;2023-03-01T13:17:49;3.77;;;3.57;;
19907;SDS011;10116;53.112;7.356;2023-03-01T13:20:18;5.93;;;4.50;;
19907;SDS011;10116;53.112;7.356;2023-03-01T13:22:46;5.43;;;4.93;;
19907;SDS011;10116;53.112;7.356;2023-03-01T13:25:14;4.20;;;3.80;;
19907;SDS011;10116;53.112;7.356;2023-03-01T13:27:45;4.83;;;4.43;;
19907;SDS011;10116;53.112;7.356;2023-03-01T13:30:57;5.20;;;4.63;;
19907;SDS011;10116;53.112;7.356;2023-03-01T13:35:48;5.80;;;5.17;;
19907;SDS011;10116;53.112;7.356;2023-03-01T13:38:36;4.63;;;4.23;;
19907;SDS011;10116;53.112;7.356;2023-03-01T13:41:02;4.80;;;4.50;;
19907;SDS011;10116;53.112;7.356;2023-03-01T13:43:31;4.60;;;4.30;;
19907;SDS011;10116;53.112;7.356;2023-03-01T13:46:02;4.17;;;3.87;;
19907;SDS011;10116;53.112;7.356;2023-03-01T13:48:38;4.13;;;3.80;;
19907;SDS011;10116;53.112;7.356;2023-03-01T13:51:05;4.60;;;4.20;;
19907;SDS011;10116;53.112;7.356;2023-03-01T13:53:36;4.43;;;4.13;;
19907;SDS011;10116;53.112;7.356;2023-03-01T13:56:07;5.33;;;4.80;;
19907;SDS011;10116;53.112;7.356;2023-03-01T13:58:58;4.20;;;3.90;;
19907;SDS011;10116;53.112;7.356;2023-03-01T14:01:31;5.17;;;4.67;;
19907;SDS011;10116;53.112;7.356;2023-03-01T14:03:58;4.67;;;4.27;;
19907;SDS011;10116;53.112;7.356;2023-03-01T14:06:26;5.30;;;4.80;;
19907;SDS011;10116;53.112;7.356;2023-03-01T14:12:05;4.70;;;4.40;;
19907;SDS011;10116;53.112;7.356;2023-03-01T14:14:59;4.63;;;4.33;;
19907;SDS011;10116;53.112;7.356;2023-03-01T14:22:44;5.07;;;4.67;;
19907;SDS011;10116;53.112;7.356;2023-03-01T14:27:54;5.10;;;4.37;;
19907;SDS011;10116;53.112;7.356;2023-03-01T14:30:24;4.47;;;4.13;;
19907;SDS011;10116;53.112;7.356;2023-03-01T14:32:55;4.33;;;3.93;;
19907;SDS011;10116;53.112;7.356;2023-03-01T14:35:33;5.17;;;4.70;;
19907;SDS011;10116;53.112;7.356;2023-03-01T14:38:00;4.73;;;4.00;;
19907;SDS011;10116;53.112;7.356;2023-03-01T14:42:57;3.80;;;3.60;;
19907;SDS011;10116;53.112;7.356;2023-03-01T14:45:25;3.87;;;3.57;;
19907;SDS011;10116;53.112;7.356;2023-03-01T14:47:54;4.10;;;3.80;;
19907;SDS011;10116;53.112;7.356;2023-03-01T14:50:22;3.83;;;3.60;;
19907;SDS011;10116;53.112;7.356;2023-03-01T14:52:57;4.23;;;3.93;;
19907;SDS011;10116;53.112;7.356;2023-03-01T14:57:53;3.63;;;3.43;;
19907;SDS011;10116;53.112;7.356;2023-03-01T15:00:20;4.00;;;3.70;;
19907;SDS011;10116;53.112;7.356;2023-03-01T15:02:55;4.00;;;3.70;;
19907;SDS011;10116;53.112;7.356;2023-03-01T15:05:27;3.60;;;3.30;;
19907;SDS011;10116;53.112;7.356;2023-03-01T15:07:58;3.47;;;3.27;;
19907;SDS011;10116;53.112;7.356;2023-03-01T15:10:27;3.50;;;3.23;;
19907;SDS011;10116;53.112;7.356;2023-03-01T15:12:55;6.27;;;4.53;;
19907;SDS011;10116;53.112;7.356;2023-03-01T15:17:55;4.77;;;4.37;;
19907;SDS011;10116;53.112;7.356;2023-03-01T15:20:24;5.07;;;4.67;;
19907;SDS011;10116;53.112;7.356;2023-03-01T15:22:55;4.43;;;4.10;;
19907;SDS011;10116;53.112;7.356;2023-03-01T15:25:22;4.03;;;3.77;;
19907;SDS011;10116;53.112;7.356;2023-03-01T15:27:53;4.27;;;3.97;;
19907;SDS011;10116;53.112;7.356;2023-03-01T15:32:48;3.60;;;3.40;;
19907;SDS011;10116;53.112;7.356;2023-03-01T15:35:45;3.73;;;3.43;;
19907;SDS011;10116;53.112;7.356;2023-03-01T15:41:29;3.60;;;3.40;;
19907;SDS011;10116;53.112;7.356;2023-03-01T15:43:56;4.13;;;3.83;;
19907;SDS011;10116;53.112;7.356;2023-03-01T15:46:30;4.07;;;3.77;;
19907;SDS011;10116;53.112;7.356;2023-03-01T15:48:58;21.57;;;5.57;;
19907;SDS011;10116;53.112;7.356;2023-03-01T15:51:36;16.27;;;4.30;;
19907;SDS011;10116;53.112;7.356;2023-03-01T15:54:21;6.13;;;3.93;;
19907;SDS011;10116;53.112;7.356;2023-03-01T15:56:48;4.10;;;3.70;;
19907;SDS011;10116;53.112;7.356;2023-03-01T15:59:15;4.83;;;3.40;;
19907;SDS011;10116;53.112;7.356;2023-03-01T16:01:41;3.57;;;3.30;;
19907;SDS011;10116;53.112;7.356;2023-03-01T16:04:09;6.13;;;3.10;;
19907;SDS011;10116;53.112;7.356;2023-03-01T16:06:38;3.27;;;3.00;;
19907;SDS011;10116;53.112;7.356;2023-03-01T16:09:04;2.63;;;2.47;;
19907;SDS011;10116;53.112;7.356;2023-03-01T16:11:30;2.93;;;2.73;;
19907;SDS011;10116;53.112;7.356;2023-03-01T16:13:57;2.60;;;2.40;;
19907;SDS011;10116;53.112;7.356;2023-03-01T16:16:23;2.33;;;2.23;;
19907;SDS011;10116;53.112;7.356;2023-03-01T16:18:49;2.23;;;2.13;;
19907;SDS011;10116;53.112;7.356;2023-03-01T16:21:16;3.27;;;2.63;;
19907;SDS011;10116;53.112;7.356;2023-03-01T16:23:48;2.70;;;2.60;;
19907;SDS011;10116;53.112;7.356;2023-03-01T16:26:14;2.93;;;2.60;;
19907;SDS011;10116;53.112;7.356;2023-03-01T16:28:40;2.30;;;2.20;;
19907;SDS011;10116;53.112;7.356;2023-03-01T16:31:06;2.20;;;2.00;;
19907;SDS011;10116;53.112;7.356;2023-03-01T16:33:32;2.97;;;2.77;;
19907;SDS011;10116;53.112;7.356;2023-03-01T16:35:59;2.80;;;2.60;;
19907;SDS011;10116;53.112;7.356;2023-03-01T16:38:32;1.97;;;1.87;;
19907;SDS011;10116;53.112;7.356;2023-03-01T16:40:59;2.70;;;2.50;;
19907;SDS011;10116;53.112;7.356;2023-03-01T16:43:25;2.63;;;2.43;;
19907;SDS011;10116;53.112;7.356;2023-03-01T16:45:51;2.43;;;2.33;;
19907;SDS011;10116;53.112;7.356;2023-03-01T16:48:16;2.53;;;2.33;;
19907;SDS011;10116;53.112;7.356;2023-03-01T16:50:42;2.40;;;2.20;;
19907;SDS011;10116;53.112;7.356;2023-03-01T16:53:08;2.77;;;2.53;;
19907;SDS011;10116;53.112;7.356;2023-03-01T16:55:34;6.67;;;2.97;;
19907;SDS011;10116;53.112;7.356;2023-03-01T16:58:00;4.20;;;3.37;;
19907;SDS011;10116;53.112;7.356;2023-03-01T17:00:25;7.20;;;6.50;;
19907;SDS011;10116;53.112;7.356;2023-03-01T17:02:51;8.20;;;6.30;;
19907;SDS011;10116;53.112;7.356;2023-03-01T17:05:17;8.93;;;6.60;;
19907;SDS011;10116;53.112;7.356;2023-03-01T17:07:45;11.00;;;7.10;;
19907;SDS011;10116;53.112;7.356;2023-03-01T17:10:11;13.03;;;7.87;;
19907;SDS011;10116;53.112;7.356;2023-03-01T17:12:37;9.20;;;7.13;;
19907;SDS011;10116;53.112;7.356;2023-03-01T17:15:03;10.17;;;7.27;;
19907;SDS011;10116;53.112;7.356;2023-03-01T17:17:30;8.73;;;6.23;;
19907;SDS011;10116;53.112;7.356;2023-03-01T17:19:56;6.87;;;5.70;;
19907;SDS011;10116;53.112;7.356;2023-03-01T17:22:22;6.50;;;4.87;;
19907;SDS011;10116;53.112;7.356;2023-03-01T17:24:47;6.50;;;5.50;;
19907;SDS011;10116;53.112;7.356;2023-03-01T17:27:13;6.30;;;5.07;;
19907;SDS011;10116;53.112;7.356;2023-03-01T17:29:40;6.70;;;4.87;;
19907;SDS011;10116;53.112;7.356;2023-03-01T17:32:06;5.70;;;4.83;;